Time;durP1;ratioP1;P1;durP2;ratioP2;P2;SDS_P1;SDS_P2;PMS_P1;PMS_P2;Temp;Humidity;BMP_temperature;BMP_pressure;BME280_temperature;BME280_humidity;BME280_pressure;Samples;Min_cycle;Max_cycle;Signal;HPM_P1;HPM_P2
2023/03/08 00:01:24;;;;;;;0.10;0.10;;;2.70;99.90;230.40;231737.00;;;;4998132;28;20681;-74
2023/03/08 00:03:53;;;;;;;0.10;0.10;;;2.60;99.90;230.40;231737.00;;;;4994377;28;20547;-74
2023/03/08 00:06:23;;;;;;;0.10;0.10;;;2.70;99.90;230.40;231737.00;;;;4991510;28;20242;-73
2023/03/08 00:08:55;;;;;;;0.10;0.10;;;2.50;99.90;230.40;231737.00;;;;4993505;28;20219;-74
2023/03/08 00:11:24;;;;;;;0.10;0.10;;;2.50;99.90;230.40;231737.00;;;;4994205;28;20238;-73
2023/03/08 00:13:52;;;;;;;0.10;0.10;;;2.50;99.90;230.40;231737.00;;;;4991342;28;20201;-74
2023/03/08 00:16:22;;;;;;;0.10;0.10;;;2.60;99.90;230.40;231737.00;;;;4993554;28;20223;-74
2023/03/08 00:18:50;;;;;;;0.10;0.10;;;2.60;99.90;230.40;231737.00;;;;4992419;28;20208;-74
2023/03/08 00:21:19;;;;;;;0.10;0.10;;;2.60;99.90;230.40;231737.00;;;;4992497;28;20754;-74
2023/03/08 00:23:48;;;;;;;0.10;0.10;;;2.60;99.90;230.40;231737.00;;;;4992419;28;20196;-74
2023/03/08 00:26:16;;;;;;;0.10;0.10;;;2.60;99.90;230.40;231737.00;;;;4992780;28;20212;-74
2023/03/08 00:28:46;;;;;;;0.10;0.10;;;2.60;99.90;230.40;231737.00;;;;4991007;28;20207;-74
2023/03/08 00:31:14;;;;;;;0.10;0.10;;;2.60;99.90;230.40;231737.00;;;;4994951;28;20239;-75
2023/03/08 00:33:44;;;;;;;0.10;0.10;;;2.60;99.90;230.40;231737.00;;;;4994823;28;20196;-74
2023/03/08 00:36:17;;;;;;;0.10;0.10;;;2.50;99.90;230.40;231737.00;;;;5007427;28;20200;-75
2023/03/08 00:38:47;;;;;;;0.10;0.10;;;2.50;99.90;230.40;231737.00;;;;4995347;28;20200;-74
2023/03/08 00:41:15;;;;;;;0.10;0.10;;;2.40;99.90;230.40;231737.00;;;;4991625;28;20220;-74
2023/03/08 00:43:43;;;;;;;0.10;0.10;;;2.40;99.90;230.40;231737.00;;;;4997267;28;20287;-74
2023/03/08 00:46:12;;;;;;;0.10;0.10;;;2.40;99.90;230.40;231737.00;;;;5000701;28;20223;-74
2023/03/08 00:48:41;;;;;;;0.10;0.10;;;2.40;99.90;230.40;231737.00;;;;4994719;28;20258;-74
2023/03/08 00:51:14;;;;;;;0.10;0.10;;;2.40;99.90;230.40;231737.00;;;;4995068;28;20295;-71
2023/03/08 00:53:42;;;;;;;0.10;0.10;;;2.40;99.90;230.40;231737.00;;;;4987993;28;20676;-70
2023/03/08 00:56:11;;;;;;;0.08;0.08;;;2.40;99.90;230.40;231737.00;;;;4994007;28;20224;-71
2023/03/08 00:58:41;;;;;;;0.10;0.10;;;2.30;99.90;230.40;231737.00;;;;4993385;28;20199;-71
2023/03/08 01:01:16;;;;;;;0.10;0.10;;;2.40;99.90;230.40;231737.00;;;;4993164;28;20662;-73
2023/03/08 01:03:46;;;;;;;0.10;0.10;;;2.30;99.90;230.40;231737.00;;;;4991605;28;20283;-72
2023/03/08 01:06:17;;;;;;;0.10;0.10;;;2.20;99.90;230.40;231737.00;;;;4987277;28;20216;-72
2023/03/08 01:08:45;;;;;;;0.10;0.10;;;2.20;99.90;230.40;231737.00;;;;4991155;28;20204;-72
2023/03/08 01:11:20;;;;;;;0.10;0.10;;;2.20;99.90;230.40;231737.00;;;;4992297;28;20228;-73
2023/03/08 01:13:50;;;;;;;0.10;0.10;;;2.20;99.90;230.40;231737.00;;;;4994244;28;20200;-73
2023/03/08 01:16:21;;;;;;;0.10;0.10;;;2.20;99.90;230.40;231737.00;;;;4994024;28;20271;-72
2023/03/08 01:18:49;;;;;;;0.10;0.10;;;2.10;99.90;230.40;231737.00;;;;4994304;28;20254;-73
2023/03/08 01:21:21;;;;;;;0.10;0.10;;;2.10;99.90;230.40;231737.00;;;;4987668;28;20623;-73
2023/03/08 01:23:50;;;;;;;0.10;0.10;;;2.10;99.90;230.40;231737.00;;;;4993286;28;20230;-72
2023/03/08 01:26:21;;;;;;;0.10;0.10;;;2.20;99.90;230.40;231737.00;;;;4992060;28;20624;-72
2023/03/08 01:28:51;;;;;;;0.03;0.03;;;2.10;99.90;230.40;231737.00;;;;4987805;28;20685;-72
2023/03/08 01:31:23;;;;;;;0.10;0.10;;;2.10;99.90;230.40;231737.00;;;;4993808;28;20231;-72
2023/03/08 01:33:53;;;;;;;0.10;0.10;;;2.10;99.90;230.40;231737.00;;;;4992670;28;20335;-73
2023/03/08 01:36:26;;;;;;;0.10;0.10;;;2.00;99.90;230.40;231737.00;;;;4992548;28;20208;-73
2023/03/08 01:38:55;;;;;;;0.10;0.10;;;2.10;99.90;230.40;231737.00;;;;4989300;28;20204;-72
2023/03/08 01:41:26;;;;;;;0.10;0.10;;;2.10;99.90;230.40;231737.00;;;;4988686;28;20231;-73
2023/03/08 01:43:54;;;;;;;0.10;0.10;;;2.00;99.90;230.40;231737.00;;;;4990414;28;20197;-73
2023/03/08 01:46:27;;;;;;;0.10;0.10;;;2.00;99.90;230.40;231737.00;;;;4992274;28;20227;-71
2023/03/08 01:49:19;;;;;;;0.10;0.10;;;2.10;99.90;230.40;231737.00;;;;4989299;28;20288;-72
2023/03/08 01:52:00;;;;;;;0.10;0.10;;;2.10;99.90;230.40;231737.00;;;;4992370;28;20239;-72
2023/03/08 01:54:35;;;;;;;0.10;0.10;;;2.10;99.90;230.40;231737.00;;;;4993767;28;20204;-72
2023/03/08 01:57:11;;;;;;;0.10;0.10;;;2.10;99.90;230.40;231737.00;;;;4992351;28;20298;-72
2023/03/08 01:59:40;;;;;;;0.10;0.10;;;2.10;99.90;230.40;231737.00;;;;4991827;28;20196;-72
2023/03/08 02:02:09;;;;;;;0.10;0.10;;;2.10;99.90;230.40;231737.00;;;;5002071;28;20222;-72
2023/03/08 02:04:39;;;;;;;0.10;0.10;;;2.10;99.90;230.40;231737.00;;;;5000766;28;20216;-73
2023/03/08 02:07:11;;;;;;;0.10;0.10;;;2.10;99.90;230.40;231737.00;;;;4998880;28;20419;-73
2023/03/08 02:09:41;;;;;;;0.10;0.10;;;2.10;99.90;230.40;231737.00;;;;5002927;28;20199;-73
2023/03/08 02:12:12;;;;;;;0.10;0.10;;;2.20;99.90;230.40;231737.00;;;;5002163;28;20225;-73
2023/03/08 02:14:43;;;;;;;0.10;0.10;;;2.20;99.90;230.40;231737.00;;;;4989821;28;20211;-72
2023/03/08 02:17:12;;;;;;;0.10;0.10;;;2.20;99.90;230.40;231737.00;;;;4991666;28;20295;-73
2023/03/08 02:19:48;;;;;;;0.10;0.10;;;2.30;99.90;230.40;231737.00;;;;4991427;28;20231;-73
2023/03/08 02:22:18;;;;;;;0.10;0.10;;;2.30;99.90;230.40;231737.00;;;;4990357;28;20725;-73
2023/03/08 02:24:47;;;;;;;0.10;0.10;;;2.20;99.90;230.40;231737.00;;;;4994296;28;20228;-73
2023/03/08 02:27:21;;;;;;;0.10;0.10;;;2.20;99.90;230.40;231737.00;;;;4990026;28;20268;-72
2023/03/08 02:29:49;;;;;;;0.10;0.10;;;2.20;99.90;230.40;231737.00;;;;4988870;28;20246;-72
2023/03/08 02:32:18;;;;;;;0.10;0.10;;;2.20;99.90;230.40;231737.00;;;;4991370;28;20283;-73
2023/03/08 02:34:46;;;;;;;0.10;0.10;;;2.20;99.90;230.40;231737.00;;;;4992427;28;20219;-73
2023/03/08 02:37:14;;;;;;;0.10;0.10;;;2.10;99.90;230.40;231737.00;;;;4987722;28;20212;-73
2023/03/08 02:39:42;;;;;;;0.10;0.10;;;2.10;99.90;230.40;231737.00;;;;4989804;28;20207;-72
2023/03/08 02:42:11;;;;;;;0.10;0.10;;;2.00;99.90;230.40;231737.00;;;;4996069;28;20215;-73
2023/03/08 02:44:39;;;;;;;0.10;0.10;;;2.00;99.90;230.40;231737.00;;;;4995083;28;20240;-73
2023/03/08 02:47:08;;;;;;;0.10;0.10;;;2.00;99.90;230.40;231737.00;;;;4992445;28;20252;-73
2023/03/08 02:49:36;;;;;;;0.10;0.10;;;2.00;99.90;230.40;231737.00;;;;4991174;28;20208;-73
2023/03/08 02:52:04;;;;;;;0.10;0.10;;;2.00;99.90;230.40;231737.00;;;;5004150;28;20233;-73
2023/03/08 02:54:32;;;;;;;0.10;0.10;;;1.90;99.90;230.40;231737.00;;;;4991382;28;20193;-73
2023/03/08 02:57:01;;;;;;;0.10;0.10;;;2.00;99.90;230.40;231737.00;;;;4991069;28;20213;-73
2023/03/08 02:59:31;;;;;;;0.10;0.10;;;2.00;99.90;230.40;231737.00;;;;4991288;28;20200;-73
2023/03/08 03:01:59;;;;;;;0.10;0.10;;;2.00;99.90;230.40;231737.00;;;;4992993;28;20583;-73
2023/03/08 03:04:30;;;;;;;0.10;0.10;;;2.10;99.90;230.40;231737.00;;;;4994897;28;20203;-73
2023/03/08 03:06:59;;;;;;;0.10;0.10;;;2.10;99.90;230.40;231737.00;;;;4990861;28;20283;-73
2023/03/08 03:09:28;;;;;;;0.10;0.10;;;2.10;99.90;230.40;231737.00;;;;4996938;28;20200;-74
2023/03/08 03:11:57;;;;;;;0.10;0.10;;;2.20;99.90;230.40;231737.00;;;;4991275;28;20308;-73
2023/03/08 03:14:27;;;;;;;0.10;0.10;;;2.20;99.90;230.40;231737.00;;;;4992454;28;20196;-73
2023/03/08 03:16:58;;;;;;;0.10;0.10;;;2.30;99.90;230.40;231737.00;;;;5003451;28;20205;-74
2023/03/08 03:19:26;;;;;;;0.10;0.10;;;2.30;99.90;230.40;231737.00;;;;4981490;28;20197;-73
2023/03/08 03:21:55;;;;;;;0.10;0.10;;;2.30;99.90;230.40;231737.00;;;;5007782;28;20223;-73
2023/03/08 03:24:23;;;;;;;0.10;0.10;;;2.30;99.90;230.40;231737.00;;;;4990751;28;20211;-72
2023/03/08 03:26:54;;;;;;;0.10;0.10;;;2.30;99.90;230.40;231737.00;;;;4990508;28;20204;-73
2023/03/08 03:29:25;;;;;;;0.10;0.10;;;2.40;99.90;230.40;231737.00;;;;4990968;28;20622;-72
2023/03/08 03:32:02;;;;;;;0.10;0.10;;;2.40;99.90;230.40;231737.00;;;;4990495;28;20216;-72
2023/03/08 03:34:31;;;;;;;0.10;0.10;;;2.40;99.90;230.40;231737.00;;;;4990872;28;20672;-72
2023/03/08 03:36:59;;;;;;;0.10;0.10;;;2.30;99.90;230.40;231737.00;;;;4987284;28;20652;-73
2023/03/08 03:39:32;;;;;;;0.10;0.10;;;2.20;99.90;230.40;231737.00;;;;4988016;28;20604;-73
2023/03/08 03:42:01;;;;;;;0.10;0.10;;;2.30;99.90;230.40;231737.00;;;;5008173;28;20227;-73
2023/03/08 03:44:30;;;;;;;0.10;0.10;;;2.30;99.90;230.40;231737.00;;;;4992210;28;20195;-73
2023/03/08 03:46:58;;;;;;;0.10;0.10;;;2.30;99.90;230.40;231737.00;;;;4989749;28;20270;-73
2023/03/08 03:49:29;;;;;;;0.10;0.10;;;2.30;99.90;230.40;231737.00;;;;5005654;28;20220;-73
2023/03/08 03:51:57;;;;;;;0.10;0.10;;;2.30;99.90;230.40;231737.00;;;;4990498;28;20291;-71
2023/03/08 03:54:33;;;;;;;0.10;0.10;;;2.30;99.90;230.40;231737.00;;;;4992592;28;20658;-72
2023/03/08 03:57:01;;;;;;;0.10;0.10;;;2.40;99.90;230.40;231737.00;;;;4990546;28;20212;-72
2023/03/08 03:59:33;;;;;;;0.10;0.10;;;2.50;99.90;230.40;231737.00;;;;5001950;28;20295;-72
2023/03/08 04:02:03;;;;;;;0.10;0.10;;;2.40;99.90;230.40;231737.00;;;;4996992;28;20223;-73
2023/03/08 04:04:41;;;;;;;0.10;0.10;;;2.50;99.90;230.40;231737.00;;;;4998971;28;20207;-71
2023/03/08 04:07:12;;;;;;;0.10;0.10;;;2.50;99.90;230.40;231737.00;;;;4994328;28;20682;-70
2023/03/08 04:09:46;;;;;;;0.10;0.10;;;2.50;99.90;230.40;231737.00;;;;4994799;28;20262;-72
2023/03/08 04:12:16;;;;;;;0.10;0.10;;;2.50;99.90;230.40;231737.00;;;;4988219;28;20222;-72
2023/03/08 04:14:44;;;;;;;0.10;0.10;;;2.50;99.90;230.40;231737.00;;;;4995786;28;20216;-72
2023/03/08 04:17:14;;;;;;;0.10;0.10;;;2.40;99.90;230.40;231737.00;;;;4994215;28;20251;-72
2023/03/08 04:19:49;;;;;;;0.10;0.10;;;2.40;99.90;230.40;231737.00;;;;4994614;28;20307;-72
2023/03/08 04:22:19;;;;;;;0.10;0.10;;;2.40;99.90;230.40;231737.00;;;;5006522;28;20274;-72
2023/03/08 04:24:52;;;;;;;0.10;0.10;;;2.30;99.90;230.40;231737.00;;;;4996407;28;20259;-72
2023/03/08 04:27:26;;;;;;;0.10;0.10;;;2.40;99.90;230.40;231737.00;;;;4993478;28;20230;-71
2023/03/08 04:29:54;;;;;;;0.10;0.10;;;2.40;99.90;230.40;231737.00;;;;4994192;28;20660;-71
2023/03/08 04:32:23;;;;;;;0.10;0.10;;;2.40;99.90;230.40;231737.00;;;;4993863;28;20232;-72
2023/03/08 04:34:57;;;;;;;0.10;0.10;;;2.40;99.90;230.40;231737.00;;;;4994422;28;20568;-72
2023/03/08 04:37:29;;;;;;;0.10;0.10;;;2.40;99.90;230.40;231737.00;;;;5009154;28;20228;-75
2023/03/08 04:40:08;;;;;;;0.10;0.10;;;2.30;99.90;230.40;231737.00;;;;4993650;28;20235;-72
2023/03/08 04:42:42;;;;;;;0.10;0.10;;;2.30;99.90;230.40;231737.00;;;;4988295;28;20631;-72
2023/03/08 04:45:12;;;;;;;0.10;0.10;;;2.30;99.90;230.40;231737.00;;;;4990274;28;20271;-72
2023/03/08 04:47:40;;;;;;;0.10;0.10;;;2.40;99.90;230.40;231737.00;;;;5003294;28;20208;-72
2023/03/08 04:50:12;;;;;;;0.10;0.10;;;2.40;99.90;230.40;231737.00;;;;5009854;28;20209;-72
2023/03/08 04:52:41;;;;;;;0.10;0.10;;;2.40;99.90;230.40;231737.00;;;;4987878;28;20231;-72
2023/03/08 04:55:09;;;;;;;0.10;0.10;;;2.40;99.90;230.40;231737.00;;;;4994484;28;20198;-72
2023/03/08 04:57:38;;;;;;;0.10;0.10;;;2.40;99.90;230.40;231737.00;;;;4993681;28;20204;-72
2023/03/08 05:00:09;;;;;;;0.10;0.10;;;2.50;99.90;230.40;231737.00;;;;4993685;28;20207;-72
2023/03/08 05:02:39;;;;;;;0.10;0.10;;;2.40;99.90;230.40;231737.00;;;;4993498;28;20593;-72
2023/03/08 05:05:14;;;;;;;0.10;0.10;;;2.50;99.90;230.40;231737.00;;;;4987551;28;20547;-72
2023/03/08 05:07:42;;;;;;;0.10;0.10;;;2.50;99.90;230.40;231737.00;;;;4994145;28;20201;-72
2023/03/08 05:10:12;;;;;;;0.10;0.10;;;2.50;99.90;230.40;231737.00;;;;4993791;28;20254;-72
2023/03/08 05:12:41;;;;;;;0.10;0.10;;;2.50;99.90;230.40;231737.00;;;;4993495;28;20224;-73
2023/03/08 05:15:11;;;;;;;0.10;0.10;;;2.50;99.90;230.40;231737.00;;;;5003858;28;20200;-73
2023/03/08 05:17:39;;;;;;;0.10;0.10;;;2.50;99.90;230.40;231737.00;;;;4993401;28;20231;-72
2023/03/08 05:20:09;;;;;;;0.10;0.10;;;2.50;99.90;230.40;231737.00;;;;4994102;28;20208;-72
2023/03/08 05:22:41;;;;;;;0.10;0.10;;;2.40;99.90;230.40;231737.00;;;;4994383;28;20220;-72
2023/03/08 05:25:29;;;;;;;0.10;0.10;;;2.40;99.90;230.40;231737.00;;;;4993710;28;20197;-72
2023/03/08 05:27:57;;;;;;;0.10;0.10;;;2.50;99.90;230.40;231737.00;;;;4992253;28;20204;-73
2023/03/08 05:30:26;;;;;;;0.10;0.10;;;2.50;99.90;230.40;231737.00;;;;4985844;28;20644;-72
2023/03/08 05:32:54;;;;;;;0.10;0.10;;;2.50;99.90;230.40;231737.00;;;;5002561;28;20224;-72
2023/03/08 05:35:22;;;;;;;0.10;0.10;;;2.50;99.90;230.40;231737.00;;;;4997384;28;20300;-73
2023/03/08 05:37:52;;;;;;;0.10;0.10;;;2.50;99.90;230.40;231737.00;;;;4999931;28;20290;-73
2023/03/08 05:40:20;;;;;;;0.10;0.10;;;2.60;99.90;230.40;231737.00;;;;4987280;28;20207;-73
2023/03/08 05:42:50;;;;;;;0.10;0.10;;;2.60;99.90;230.40;231737.00;;;;5010886;28;20222;-72
2023/03/08 05:45:18;;;;;;;0.10;0.10;;;2.60;99.90;230.40;231737.00;;;;4991047;28;20202;-73
2023/03/08 05:47:46;;;;;;;0.10;0.10;;;2.70;99.90;230.40;231737.00;;;;4989577;28;20204;-71
2023/03/08 05:50:15;;;;;;;0.10;0.10;;;2.70;99.90;230.40;231737.00;;;;5000015;28;20286;-72
2023/03/08 05:52:44;;;;;;;0.10;0.10;;;2.70;99.90;230.40;231737.00;;;;4987316;28;20307;-71
2023/03/08 05:55:17;;;;;;;0.10;0.10;;;2.70;99.90;230.40;231737.00;;;;4986301;28;20201;-72
2023/03/08 05:57:47;;;;;;;0.10;0.10;;;2.70;99.90;230.40;231737.00;;;;4988568;28;20214;-72
2023/03/08 06:00:16;;;;;;;0.10;0.10;;;2.70;99.90;230.40;231737.00;;;;4986623;28;20200;-73
2023/03/08 06:02:50;;;;;;;0.10;0.10;;;2.70;99.90;230.40;231737.00;;;;4991390;28;20769;-72
2023/03/08 06:05:20;;;;;;;0.10;0.10;;;2.70;99.90;230.40;231737.00;;;;4998233;28;20207;-72
2023/03/08 06:07:51;;;;;;;0.10;0.10;;;2.70;99.90;230.40;231737.00;;;;4998628;28;20246;-72
2023/03/08 06:10:21;;;;;;;0.10;0.10;;;2.80;99.90;230.40;231737.00;;;;5002420;28;20224;-72
2023/03/08 06:12:50;;;;;;;0.10;0.10;;;2.80;99.90;230.40;231737.00;;;;4996099;28;20224;-72
2023/03/08 06:15:20;;;;;;;0.10;0.10;;;2.80;99.90;230.40;231737.00;;;;4994686;28;20189;-72
2023/03/08 06:17:48;;;;;;;0.10;0.10;;;2.80;99.90;230.40;231737.00;;;;4992797;28;20262;-71
2023/03/08 06:20:19;;;;;;;0.10;0.10;;;2.80;99.90;230.40;231737.00;;;;4985764;28;20279;-72
2023/03/08 06:22:50;;;;;;;0.10;0.10;;;2.80;99.90;230.40;231737.00;;;;4988991;28;20221;-74
2023/03/08 06:25:20;;;;;;;0.10;0.10;;;2.80;99.90;230.40;231737.00;;;;4991442;28;20192;-73
2023/03/08 06:27:49;;;;;;;0.10;0.10;;;2.80;99.90;230.40;231737.00;;;;4992743;28;20219;-73
2023/03/08 06:30:26;;;;;;;0.10;0.10;;;2.80;99.90;230.40;231737.00;;;;4992422;28;20228;-73
2023/03/08 06:32:54;;;;;;;0.10;0.10;;;2.80;99.90;230.40;231737.00;;;;4992167;28;20224;-72
2023/03/08 06:35:22;;;;;;;0.10;0.10;;;2.80;99.90;230.40;231737.00;;;;4991685;28;20200;-72
2023/03/08 06:37:56;;;;;;;0.10;0.10;;;2.80;99.90;230.40;231737.00;;;;4992294;28;20200;-73
2023/03/08 06:40:25;;;;;;;0.05;0.05;;;2.80;99.90;230.40;231737.00;;;;4992175;28;20219;-73
2023/03/08 06:42:54;;;;;;;0.10;0.10;;;2.80;99.90;230.40;231737.00;;;;4993808;28;20220;-73
2023/03/08 06:45:22;;;;;;;0.05;0.05;;;2.80;99.90;230.40;231737.00;;;;4991694;28;20299;-73
2023/03/08 06:47:50;;;;;;;0.00;0.00;;;2.80;99.90;230.40;231737.00;;;;4992451;28;20200;-73
2023/03/08 06:50:19;;;;;;;0.10;0.10;;;2.80;99.90;230.40;231737.00;;;;4991867;28;20252;-73
2023/03/08 06:52:49;;;;;;;0.10;0.10;;;2.80;99.90;230.40;231737.00;;;;5027507;23;20241;-76
2023/03/08 06:55:22;;;;;;;0.00;0.00;;;2.90;99.90;230.40;231737.00;;;;5031739;28;20203;-77
2023/03/08 06:57:52;;;;;;;0.10;0.10;;;2.90;99.90;230.40;231737.00;;;;5027815;28;20192;-76
2023/03/08 07:00:21;;;;;;;0.10;0.10;;;2.90;99.90;230.40;231737.00;;;;5031354;28;20280;-76
2023/03/08 07:02:50;;;;;;;0.10;0.10;;;2.90;99.90;230.40;231737.00;;;;5016679;28;20230;-76
2023/03/08 07:05:18;;;;;;;0.10;0.10;;;2.90;99.90;230.40;231737.00;;;;5011893;28;20200;-76
2023/03/08 07:07:46;;;;;;;0.10;0.10;;;2.90;99.90;230.40;231737.00;;;;5011946;28;20195;-76
2023/03/08 07:10:16;;;;;;;0.10;0.10;;;3.00;99.90;230.40;231737.00;;;;5004118;28;20211;-76
2023/03/08 07:12:47;;;;;;;0.10;0.10;;;3.10;99.90;230.40;231737.00;;;;5011923;28;20243;-76
2023/03/08 07:15:20;;;;;;;0.10;0.10;;;3.20;99.90;230.40;231737.00;;;;5001763;28;20208;-77
2023/03/08 07:17:50;;;;;;;0.10;0.10;;;3.30;99.90;230.40;231737.00;;;;5013310;28;20254;-76
2023/03/08 07:20:21;;;;;;;0.10;0.10;;;3.30;99.90;230.40;231737.00;;;;5011954;28;20211;-76
2023/03/08 07:22:49;;;;;;;0.10;0.10;;;3.30;99.90;230.40;231737.00;;;;5011693;28;20698;-76
2023/03/08 07:25:20;;;;;;;0.10;0.10;;;3.30;99.90;230.40;231737.00;;;;5017389;28;20223;-77
2023/03/08 07:27:48;;;;;;;0.10;0.10;;;3.30;99.90;230.40;231737.00;;;;5011586;28;20218;-77
2023/03/08 07:30:18;;;;;;;0.10;0.10;;;3.30;99.90;230.40;231737.00;;;;5011305;28;20219;-77
2023/03/08 07:32:46;;;;;;;0.10;0.10;;;3.30;99.90;230.40;231737.00;;;;5011394;28;20216;-77
2023/03/08 07:35:16;;;;;;;0.10;0.10;;;3.20;99.90;230.40;231737.00;;;;5007890;28;20196;-76
2023/03/08 07:37:45;;;;;;;0.10;0.10;;;3.20;99.90;230.40;231737.00;;;;5013561;28;20685;-76
2023/03/08 07:40:16;;;;;;;0.10;0.10;;;3.20;99.90;230.40;231737.00;;;;5013974;28;20200;-76
2023/03/08 07:42:45;;;;;;;0.10;0.10;;;3.20;99.90;230.40;231737.00;;;;5018495;28;20215;-76
2023/03/08 07:45:31;;;;;;;0.10;0.10;;;3.30;99.90;230.40;231737.00;;;;5024390;28;20211;-76
2023/03/08 07:47:59;;;;;;;0.10;0.10;;;3.30;99.90;230.40;231737.00;;;;5019551;28;20230;-76
2023/03/08 07:50:27;;;;;;;0.10;0.10;;;3.30;99.90;230.40;231737.00;;;;5014920;28;20223;-76
2023/03/08 07:52:55;;;;;;;0.10;0.10;;;3.30;99.90;230.40;231737.00;;;;5020012;28;20223;-76
2023/03/08 07:55:24;;;;;;;0.10;0.10;;;3.40;99.90;230.40;231737.00;;;;5012165;28;20196;-76
2023/03/08 07:57:52;;;;;;;0.10;0.10;;;3.40;99.90;230.40;231737.00;;;;5014114;28;20196;-77
2023/03/08 08:00:21;;;;;;;0.10;0.10;;;3.40;99.90;230.40;231737.00;;;;5011338;28;20208;-76
2023/03/08 08:02:52;;;;;;;0.10;0.10;;;3.40;99.90;230.40;231737.00;;;;5010875;28;20263;-76
2023/03/08 08:05:21;;;;;;;0.10;0.10;;;3.50;99.90;230.40;231737.00;;;;5010844;28;20191;-76
2023/03/08 08:07:49;;;;;;;0.10;0.10;;;3.50;99.90;230.40;231737.00;;;;5011184;28;20200;-76
2023/03/08 08:10:18;;;;;;;0.10;0.10;;;3.50;99.90;230.40;231737.00;;;;5011169;28;20567;-76
2023/03/08 08:12:46;;;;;;;0.10;0.10;;;3.50;99.90;230.40;231737.00;;;;5011515;28;20238;-77
2023/03/08 08:15:15;;;;;;;0.10;0.10;;;3.50;99.90;230.40;231737.00;;;;5003617;28;20631;-74
2023/03/08 08:17:43;;;;;;;0.10;0.10;;;3.50;99.90;230.40;231737.00;;;;5009603;28;20254;-75
2023/03/08 08:20:13;;;;;;;0.10;0.10;;;3.50;99.90;230.40;231737.00;;;;5015977;28;20254;-75
2023/03/08 08:22:41;;;;;;;0.10;0.10;;;3.60;99.90;230.40;231737.00;;;;5014897;28;20243;-75
2023/03/08 08:25:10;;;;;;;0.10;0.10;;;3.60;99.90;230.40;231737.00;;;;5010984;28;20215;-75
2023/03/08 08:27:38;;;;;;;0.10;0.10;;;3.60;99.90;230.40;231737.00;;;;5013755;28;20208;-76
2023/03/08 08:30:08;;;;;;;0.10;0.10;;;3.60;99.90;230.40;231737.00;;;;5010724;28;20220;-75
2023/03/08 08:32:36;;;;;;;0.10;0.10;;;3.60;99.90;230.40;231737.00;;;;5009154;28;20224;-75
2023/03/08 08:35:06;;;;;;;0.10;0.10;;;3.60;99.90;230.40;231737.00;;;;5006251;28;20204;-76
2023/03/08 08:37:35;;;;;;;0.10;0.10;;;3.60;99.90;230.40;231737.00;;;;5010158;28;20231;-75
2023/03/08 08:40:06;;;;;;;0.10;0.10;;;3.60;99.90;230.40;231737.00;;;;5014150;28;20204;-75
2023/03/08 08:42:34;;;;;;;0.10;0.10;;;3.60;99.90;230.40;231737.00;;;;5005853;28;20231;-75
2023/03/08 08:45:02;;;;;;;0.10;0.10;;;3.50;99.90;230.40;231737.00;;;;5010446;28;20195;-74
2023/03/08 08:47:30;;;;;;;0.10;0.10;;;3.40;99.90;230.40;231737.00;;;;5017633;28;20210;-75
2023/03/08 08:49:58;;;;;;;0.10;0.10;;;3.40;99.90;230.40;231737.00;;;;5016290;28;20601;-74
2023/03/08 08:52:26;;;;;;;0.10;0.10;;;3.30;99.90;230.40;231737.00;;;;5014390;28;20283;-74
2023/03/08 08:54:56;;;;;;;0.10;0.10;;;3.20;99.90;230.40;231737.00;;;;5015319;28;20607;-74
2023/03/08 08:57:24;;;;;;;0.10;0.10;;;3.20;99.90;230.40;231737.00;;;;5018366;28;20195;-75
2023/03/08 08:59:52;;;;;;;0.10;0.10;;;3.20;99.90;230.40;231737.00;;;;5014640;28;20539;-75
2023/03/08 09:02:20;;;;;;;0.10;0.10;;;3.20;99.90;230.40;231737.00;;;;5013059;28;20235;-74
2023/03/08 09:04:48;;;;;;;0.10;0.10;;;3.20;99.90;230.40;231737.00;;;;5011243;28;20227;-75
2023/03/08 09:07:16;;;;;;;0.10;0.10;;;3.20;99.90;230.40;231737.00;;;;5013889;28;20228;-75
2023/03/08 09:09:45;;;;;;;0.10;0.10;;;3.20;99.90;230.40;231737.00;;;;5018263;28;20200;-75
2023/03/08 09:12:14;;;;;;;0.10;0.10;;;3.20;99.90;230.40;231737.00;;;;5007509;28;20246;-75
2023/03/08 09:14:42;;;;;;;0.10;0.10;;;3.20;99.90;230.40;231737.00;;;;5016352;28;20190;-74
2023/03/08 09:17:11;;;;;;;0.10;0.10;;;3.10;99.90;230.40;231737.00;;;;5014067;28;20196;-75
2023/03/08 09:19:39;;;;;;;0.10;0.10;;;3.10;99.90;230.40;231737.00;;;;5014224;28;20211;-75
2023/03/08 09:22:07;;;;;;;0.10;0.10;;;3.10;99.90;230.40;231737.00;;;;5009813;28;20220;-75
2023/03/08 09:24:35;;;;;;;0.10;0.10;;;3.10;99.90;230.40;231737.00;;;;5014324;28;20204;-75
2023/03/08 09:27:05;;;;;;;0.10;0.10;;;3.10;99.90;230.40;231737.00;;;;5016213;28;20265;-75
2023/03/08 09:29:36;;;;;;;0.00;0.00;;;3.00;99.90;230.40;231737.00;;;;5014164;28;20208;-75
2023/03/08 09:32:06;;;;;;;0.10;0.10;;;3.10;99.90;230.40;231737.00;;;;5013282;28;20257;-75
2023/03/08 09:34:34;;;;;;;0.10;0.10;;;3.10;99.90;230.40;231737.00;;;;5013861;28;20198;-75
2023/03/08 09:37:04;;;;;;;0.10;0.10;;;3.10;99.90;230.40;231737.00;;;;5013102;28;20200;-75
2023/03/08 09:39:32;;;;;;;0.10;0.10;;;3.10;99.90;230.40;231737.00;;;;5014005;28;20196;-75
2023/03/08 09:42:05;;;;;;;0.10;0.10;;;3.10;99.90;230.40;231737.00;;;;5013704;28;20228;-74
2023/03/08 09:45:05;;;;;;;0.10;0.10;;;3.10;99.90;230.40;231737.00;;;;5011670;28;20204;-75
2023/03/08 09:47:46;;;;;;;0.10;0.10;;;3.10;99.90;230.40;231737.00;;;;5009039;28;20202;-75
2023/03/08 09:50:32;;;;;;;0.10;0.10;;;3.10;99.90;230.40;231737.00;;;;5007276;28;20239;-75
2023/03/08 09:53:10;;;;;;;0.10;0.10;;;3.10;99.90;230.40;231737.00;;;;5013181;28;20258;-75
2023/03/08 09:55:47;;;;;;;0.10;0.10;;;3.10;99.90;230.40;231737.00;;;;5014887;28;20378;-75
2023/03/08 09:58:27;;;;;;;0.10;0.10;;;3.10;99.90;230.40;231737.00;;;;5004968;28;20206;-75
2023/03/08 10:01:09;;;;;;;0.10;0.10;;;3.10;99.90;230.40;231737.00;;;;5015844;28;20203;-75
2023/03/08 10:04:27;;;;;;;0.10;0.10;;;3.10;99.90;230.40;231737.00;;;;5013587;28;20199;-75
2023/03/08 10:07:14;;;;;;;0.10;0.10;;;3.10;99.90;230.40;231737.00;;;;4998586;28;20612;-75
2023/03/08 10:09:51;;;;;;;0.10;0.10;;;3.10;99.90;230.40;231737.00;;;;5009387;28;20207;-76
2023/03/08 10:12:28;;;;;;;0.10;0.10;;;3.10;99.90;230.40;231737.00;;;;5007121;28;20321;-75
2023/03/08 10:15:04;;;;;;;0.10;0.10;;;3.10;99.90;230.40;231737.00;;;;5010893;28;20188;-75
2023/03/08 10:17:44;;;;;;;0.10;0.10;;;3.10;99.90;230.40;231737.00;;;;5014488;28;20199;-75
2023/03/08 10:20:21;;;;;;;0.10;0.10;;;3.10;99.90;230.40;231737.00;;;;5006504;28;20195;-75
2023/03/08 10:22:59;;;;;;;0.10;0.10;;;3.10;99.90;230.40;231737.00;;;;5015716;28;20227;-75
2023/03/08 10:25:30;;;;;;;0.10;0.10;;;3.20;99.90;230.40;231737.00;;;;5013426;28;20199;-75
2023/03/08 10:28:01;;;;;;;0.10;0.10;;;3.20;99.90;230.40;231737.00;;;;5013581;28;20278;-75
2023/03/08 10:30:34;;;;;;;0.10;0.10;;;3.20;99.90;230.40;231737.00;;;;5012643;28;20207;-75
2023/03/08 10:33:11;;;;;;;0.10;0.10;;;3.20;99.90;230.40;231737.00;;;;5011102;28;20235;-75
2023/03/08 10:35:55;;;;;;;0.10;0.10;;;3.20;99.90;230.40;231737.00;;;;5012535;28;20199;-75
2023/03/08 10:38:27;;;;;;;0.10;0.10;;;3.20;99.90;230.40;231737.00;;;;5007784;28;20724;-75
2023/03/08 10:41:05;;;;;;;0.10;0.10;;;3.20;99.90;230.40;231737.00;;;;5012849;28;20200;-75
2023/03/08 10:43:40;;;;;;;0.10;0.10;;;3.20;99.90;230.40;231737.00;;;;5012676;28;20246;-75
2023/03/08 10:46:14;;;;;;;0.10;0.10;;;3.20;99.90;230.40;231737.00;;;;5012478;28;20214;-74
2023/03/08 10:48:44;;;;;;;0.10;0.10;;;3.20;99.90;230.40;231737.00;;;;5012494;28;20249;-74
2023/03/08 10:51:19;;;;;;;0.10;0.10;;;3.00;99.90;230.40;231737.00;;;;5004043;28;20235;-76
2023/03/08 10:53:55;;;;;;;0.10;0.10;;;3.10;99.90;230.40;231737.00;;;;5014013;28;20210;-75
2023/03/08 10:56:30;;;;;;;0.10;0.10;;;2.90;99.90;230.40;231737.00;;;;5012801;28;20203;-75
2023/03/08 10:58:59;;;;;;;0.10;0.10;;;2.90;99.90;230.40;231737.00;;;;5016934;28;20199;-76
2023/03/08 11:01:30;;;;;;;0.10;0.10;;;2.90;99.90;230.40;231737.00;;;;5027645;28;20269;-75
2023/03/08 11:04:02;;;;;;;0.10;0.10;;;2.90;99.90;230.40;231737.00;;;;5002661;28;20200;-75